Time;durP1;ratioP1;P1;durP2;ratioP2;P2;SDS_P1;SDS_P2;PMS_P1;PMS_P2;Temp;Humidity;BMP_temperature;BMP_pressure;BME280_temperature;BME280_humidity;BME280_pressure;Samples;Min_cycle;Max_cycle;Signal;HPM_P1;HPM_P2
2021/12/30 00:02:16;;;;;;;70.55;14.60;;;8.00;99.90;;;;;;5064273;28;20069;-71
2021/12/30 00:04:42;;;;;;;72.80;13.40;;;8.00;99.90;;;;;;5048627;28;20052;-70
2021/12/30 00:07:10;;;;;;;52.17;12.95;;;8.00;99.90;;;;;;5058295;28;20424;-70
2021/12/30 00:09:37;;;;;;;70.30;13.35;;;7.90;99.90;;;;;;5067403;28;20524;-70
2021/12/30 00:12:05;;;;;;;66.28;14.02;;;7.80;99.90;;;;;;5065184;28;20049;-70
2021/12/30 00:14:32;;;;;;;51.20;13.23;;;7.80;99.90;;;;;;5066350;28;20135;-70
2021/12/30 00:16:58;;;;;;;78.05;15.75;;;7.80;99.90;;;;;;5063016;28;20443;-70
2021/12/30 00:19:24;;;;;;;73.75;15.50;;;7.80;99.90;;;;;;5066050;28;20048;-70
2021/12/30 00:21:49;;;;;;;64.75;15.70;;;7.80;99.90;;;;;;5067667;28;20037;-70
2021/12/30 00:24:16;;;;;;;69.50;14.82;;;7.80;99.90;;;;;;5057815;28;20098;-70
2021/12/30 00:26:42;;;;;;;87.30;16.33;;;7.80;99.90;;;;;;5066779;28;20059;-71
2021/12/30 00:29:08;;;;;;;61.88;14.70;;;7.70;99.90;;;;;;5069226;28;20044;-71
2021/12/30 00:31:34;;;;;;;79.97;16.95;;;7.70;99.90;;;;;;5066420;28;20110;-70
2021/12/30 00:34:00;;;;;;;79.20;16.33;;;7.80;99.90;;;;;;5067120;28;20520;-70
2021/12/30 00:36:26;;;;;;;67.85;15.18;;;7.80;99.90;;;;;;5066660;28;20049;-70
2021/12/30 00:38:51;;;;;;;64.10;15.18;;;7.80;99.90;;;;;;5067864;28;20040;-70
2021/12/30 00:41:18;;;;;;;71.68;15.48;;;7.70;99.90;;;;;;5065129;28;20599;-70
2021/12/30 00:43:44;;;;;;;78.97;18.65;;;7.70;99.90;;;;;;5066681;28;20083;-70
2021/12/30 00:46:10;;;;;;;81.20;17.48;;;7.70;99.90;;;;;;5068085;28;20044;-71
2021/12/30 00:48:37;;;;;;;68.60;15.27;;;7.70;99.90;;;;;;5066512;28;20048;-71
2021/12/30 00:51:03;;;;;;;87.47;16.58;;;7.70;99.90;;;;;;5067193;28;20036;-71
2021/12/30 00:53:29;;;;;;;94.25;18.27;;;7.70;99.90;;;;;;5064003;28;20079;-70
2021/12/30 00:55:54;;;;;;;62.88;14.70;;;7.70;99.90;;;;;;5063359;28;20080;-71
2021/12/30 00:58:20;;;;;;;69.10;17.20;;;7.60;99.90;;;;;;5059019;28;20037;-70
2021/12/30 01:00:46;;;;;;;66.65;15.27;;;7.60;99.90;;;;;;5062410;28;20048;-70
2021/12/30 01:03:13;;;;;;;63.80;14.50;;;7.60;99.90;;;;;;5064213;28;20064;-70
2021/12/30 01:05:39;;;;;;;77.25;15.15;;;7.50;99.90;;;;;;5067902;28;20146;-70
2021/12/30 01:08:06;;;;;;;85.82;17.10;;;7.50;99.90;;;;;;5067751;28;20154;-70
2021/12/30 01:10:32;;;;;;;87.97;16.40;;;7.40;99.90;;;;;;5057982;28;20114;-70
2021/12/30 01:13:04;;;;;;;82.88;15.55;;;7.40;99.90;;;;;;5070493;28;20080;-70
2021/12/30 01:15:46;;;;;;;74.90;15.63;;;7.40;99.90;;;;;;5060978;28;20051;-70
2021/12/30 01:20:48;;;;;;;82.13;16.25;;;7.40;99.90;;;;;;5057216;28;20071;-70
2021/12/30 01:23:14;;;;;;;72.03;14.82;;;7.40;99.90;;;;;;5074773;28;20405;-70
2021/12/30 01:25:39;;;;;;;65.45;15.00;;;7.30;99.90;;;;;;5067698;28;20047;-70
2021/12/30 01:28:05;;;;;;;66.72;13.48;;;7.30;99.90;;;;;;5066998;28;20452;-70
2021/12/30 01:30:31;;;;;;;76.18;15.32;;;7.30;99.90;;;;;;5067868;28;20051;-70
2021/12/30 01:32:57;;;;;;;69.72;14.57;;;7.30;99.90;;;;;;5064125;28;20393;-70
2021/12/30 01:35:25;;;;;;;68.00;13.32;;;7.30;99.90;;;;;;5064418;28;20045;-70
2021/12/30 01:37:54;;;;;;;59.97;12.68;;;7.30;99.90;;;;;;5066315;28;20448;-70
2021/12/30 01:40:21;;;;;;;52.65;14.25;;;7.30;99.90;;;;;;5062169;28;20051;-71
2021/12/30 01:42:48;;;;;;;77.70;14.80;;;7.30;99.90;;;;;;5068301;28;20083;-70
2021/12/30 01:45:14;;;;;;;76.53;16.15;;;7.40;99.90;;;;;;5062751;28;20071;-70
2021/12/30 01:47:47;;;;;;;71.07;15.43;;;7.40;99.90;;;;;;5065854;28;20044;-70
2021/12/30 01:50:13;;;;;;;71.43;15.48;;;7.40;99.90;;;;;;5062889;28;20075;-70
2021/12/30 01:52:39;;;;;;;65.35;15.18;;;7.40;99.90;;;;;;5064541;28;20485;-70
2021/12/30 01:55:06;;;;;;;63.05;14.80;;;7.40;99.90;;;;;;5067533;28;20056;-71
2021/12/30 01:57:32;;;;;;;77.00;16.45;;;7.30;99.90;;;;;;5068203;28;20044;-70
2021/12/30 01:59:57;;;;;;;74.25;15.00;;;7.30;99.90;;;;;;5064772;28;20489;-70
2021/12/30 02:02:23;;;;;;;63.83;12.88;;;7.30;99.90;;;;;;5064596;28;20094;-71
2021/12/30 02:04:51;;;;;;;67.70;14.95;;;7.30;99.90;;;;;;5066751;28;20052;-71
2021/12/30 02:07:17;;;;;;;68.93;15.13;;;7.30;99.90;;;;;;5061076;28;20059;-70
2021/12/30 02:09:43;;;;;;;70.85;14.32;;;7.30;99.90;;;;;;5063776;28;20356;-70
2021/12/30 02:12:09;;;;;;;69.38;14.95;;;7.40;99.90;;;;;;5063811;28;20044;-71
2021/12/30 02:14:36;;;;;;;67.18;13.23;;;7.30;99.90;;;;;;5068202;28;20059;-70
2021/12/30 02:17:04;;;;;;;60.22;13.70;;;7.40;99.90;;;;;;5067050;28;20040;-71
2021/12/30 02:19:31;;;;;;;77.40;14.85;;;7.30;99.90;;;;;;5067353;28;20144;-70
2021/12/30 02:21:57;;;;;;;78.85;15.82;;;7.30;99.90;;;;;;5066542;28;20053;-70
2021/12/30 02:24:22;;;;;;;76.70;15.35;;;7.30;99.90;;;;;;5058604;28;20531;-71
2021/12/30 02:26:48;;;;;;;58.40;13.80;;;7.30;99.90;;;;;;5067662;28;20047;-71
2021/12/30 02:29:14;;;;;;;67.90;15.27;;;7.30;99.90;;;;;;5064784;28;20443;-70
2021/12/30 02:31:41;;;;;;;70.20;15.57;;;7.30;99.90;;;;;;5064178;28;20587;-71
2021/12/30 02:34:07;;;;;;;73.85;16.30;;;7.30;99.90;;;;;;5057218;28;20119;-71
2021/12/30 02:36:36;;;;;;;57.40;15.35;;;7.30;99.90;;;;;;5064947;28;20482;-71
2021/12/30 02:39:06;;;;;;;75.30;17.80;;;7.30;99.90;;;;;;5066378;28;20094;-70
2021/12/30 02:41:36;;;;;;;81.18;20.20;;;7.40;99.90;;;;;;5059039;28;20080;-71
2021/12/30 02:44:04;;;;;;;95.70;20.40;;;7.50;99.90;;;;;;5064574;28;20057;-70
2021/12/30 02:46:31;;;;;;;84.72;22.98;;;7.60;99.90;;;;;;5068417;28;20113;-71
2021/12/30 02:48:57;;;;;;;84.95;24.52;;;7.70;99.90;;;;;;5063991;28;20083;-71
2021/12/30 02:51:24;;;;;;;106.20;29.02;;;7.80;99.90;;;;;;5079204;28;20051;-71
2021/12/30 02:53:51;;;;;;;124.30;30.67;;;7.90;99.90;;;;;;5066942;28;20051;-70
2021/12/30 02:56:17;;;;;;;121.97;34.08;;;8.00;99.90;;;;;;5056565;28;20465;-70
2021/12/30 02:58:43;;;;;;;135.25;36.47;;;8.10;99.90;;;;;;5066079;28;20127;-70
2021/12/30 03:01:26;;;;;;;118.95;35.35;;;8.20;99.90;;;;;;5068231;28;20123;-70
2021/12/30 03:03:53;;;;;;;128.32;38.80;;;8.30;99.90;;;;;;5065152;28;20048;-70
2021/12/30 03:06:19;;;;;;;121.57;36.38;;;8.30;99.90;;;;;;5067141;28;20079;-70
2021/12/30 03:08:47;;;;;;;112.07;38.83;;;8.40;99.90;;;;;;5066701;28;20462;-70
2021/12/30 03:11:13;;;;;;;118.95;37.05;;;8.40;99.90;;;;;;5063590;28;20072;-70
2021/12/30 03:13:42;;;;;;;126.35;37.03;;;8.50;99.90;;;;;;5058922;28;20053;-70
2021/12/30 03:16:15;;;;;;;150.95;39.80;;;8.50;99.90;;;;;;5065949;28;20501;-70
2021/12/30 03:18:46;;;;;;;137.68;40.47;;;8.60;99.90;;;;;;5063767;28;20485;-70
2021/12/30 03:21:14;;;;;;;130.98;40.08;;;8.60;99.90;;;;;;5065304;28;20501;-70
2021/12/30 03:23:40;;;;;;;134.05;40.45;;;8.70;99.90;;;;;;5063073;28;20134;-70
2021/12/30 03:26:07;;;;;;;136.02;39.80;;;8.70;99.90;;;;;;5062250;28;20115;-70
2021/12/30 03:28:33;;;;;;;129.68;38.92;;;8.70;99.90;;;;;;5065191;28;20048;-70
2021/12/30 03:31:00;;;;;;;114.57;35.40;;;8.70;99.90;;;;;;5064790;28;20048;-70
2021/12/30 03:33:27;;;;;;;109.97;37.65;;;8.70;99.90;;;;;;5065656;28;20477;-70
2021/12/30 03:35:53;;;;;;;110.50;37.40;;;8.70;99.90;;;;;;5063047;28;20052;-71
2021/12/30 03:38:19;;;;;;;135.02;39.70;;;8.80;99.90;;;;;;5068751;28;20098;-70
2021/12/30 03:40:45;;;;;;;132.10;36.13;;;8.80;99.90;;;;;;5063563;28;20167;-70
2021/12/30 03:43:11;;;;;;;128.57;38.38;;;8.90;99.90;;;;;;5066904;28;20044;-70
2021/12/30 03:45:36;;;;;;;109.47;39.33;;;8.90;99.90;;;;;;5063196;28;20075;-70
2021/12/30 03:48:02;;;;;;;104.85;36.00;;;8.90;99.90;;;;;;5064003;28;20049;-70
2021/12/30 03:50:29;;;;;;;120.72;37.42;;;8.90;99.90;;;;;;5062620;28;20041;-70
2021/12/30 03:52:58;;;;;;;105.57;36.55;;;8.90;99.90;;;;;;5064362;28;20052;-70
2021/12/30 03:55:27;;;;;;;120.28;38.17;;;8.90;99.90;;;;;;5080403;28;20052;-70
2021/12/30 03:57:53;;;;;;;131.07;36.05;;;8.90;99.90;;;;;;5077164;28;20052;-70
2021/12/30 04:00:21;;;;;;;120.43;36.53;;;9.00;99.90;;;;;;5069504;28;20039;-70
2021/12/30 04:02:47;;;;;;;109.07;39.33;;;9.00;99.90;;;;;;5060808;28;20064;-70
2021/12/30 04:05:13;;;;;;;109.72;35.83;;;9.10;99.90;;;;;;5064501;28;20053;-70
2021/12/30 04:07:38;;;;;;;134.48;37.20;;;9.10;99.90;;;;;;5057108;28;20045;-70
2021/12/30 04:10:07;;;;;;;123.68;36.47;;;9.10;99.90;;;;;;5065906;28;20063;-70
2021/12/30 04:12:32;;;;;;;116.30;37.40;;;9.10;99.90;;;;;;5083035;28;20048;-70
2021/12/30 04:14:58;;;;;;;107.32;35.92;;;9.10;99.90;;;;;;5071145;28;20047;-70
2021/12/30 04:17:24;;;;;;;111.55;37.42;;;9.10;99.90;;;;;;5072336;28;20045;-70
2021/12/30 04:19:51;;;;;;;105.55;36.80;;;9.10;99.90;;;;;;5066822;28;20049;-70
2021/12/30 04:22:18;;;;;;;126.32;37.63;;;9.10;99.90;;;;;;5070460;28;20040;-70
2021/12/30 04:24:47;;;;;;;122.10;35.10;;;9.10;99.90;;;;;;5067494;28;20056;-70
2021/12/30 04:27:13;;;;;;;117.57;35.97;;;9.10;99.90;;;;;;5077919;28;20298;-70
2021/12/30 04:29:39;;;;;;;130.90;38.20;;;9.10;99.90;;;;;;5065522;28;20052;-70
2021/12/30 04:32:05;;;;;;;130.88;37.30;;;9.10;99.90;;;;;;5075994;28;20044;-70
2021/12/30 04:34:31;;;;;;;115.07;37.10;;;9.10;99.90;;;;;;5070247;28;20044;-70
2021/12/30 04:37:00;;;;;;;117.30;36.88;;;9.10;99.90;;;;;;5054561;28;20445;-70
2021/12/30 04:39:27;;;;;;;124.53;37.15;;;9.10;99.90;;;;;;5067036;28;20528;-70
2021/12/30 04:41:53;;;;;;;117.75;36.35;;;9.10;99.90;;;;;;5040262;28;20142;-70
2021/12/30 04:44:19;;;;;;;109.03;36.03;;;9.20;99.90;;;;;;5060120;28;20036;-70
2021/12/30 04:46:44;;;;;;;110.25;34.83;;;9.20;99.90;;;;;;5070573;28;20094;-70
2021/12/30 04:49:10;;;;;;;128.07;36.22;;;9.20;99.90;;;;;;5073268;28;20529;-70
2021/12/30 04:51:36;;;;;;;125.95;35.80;;;9.20;99.90;;;;;;5068277;28;20044;-70
2021/12/30 04:54:02;;;;;;;109.65;34.70;;;9.30;99.90;;;;;;5065970;28;20409;-70
2021/12/30 04:56:27;;;;;;;125.40;36.70;;;9.40;99.90;;;;;;5063339;28;20063;-70
2021/12/30 04:58:53;;;;;;;118.63;36.40;;;9.50;99.90;;;;;;5067790;28;20083;-70
2021/12/30 05:01:20;;;;;;;118.88;37.08;;;9.50;99.90;;;;;;5069596;28;20056;-70
2021/12/30 05:03:46;;;;;;;116.10;35.67;;;9.50;99.90;;;;;;5065119;28;20044;-70
2021/12/30 05:06:11;;;;;;;133.18;38.13;;;9.60;99.90;;;;;;5064967;28;20058;-70
2021/12/30 05:08:38;;;;;;;117.10;37.80;;;9.60;99.90;;;;;;5066462;28;20378;-70
2021/12/30 05:11:07;;;;;;;116.80;36.08;;;9.60;99.90;;;;;;5064131;28;20040;-70
2021/12/30 05:13:32;;;;;;;110.65;35.00;;;9.60;99.90;;;;;;5067192;28;20048;-71
2021/12/30 05:15:58;;;;;;;132.30;37.25;;;9.60;99.90;;;;;;5063872;28;20040;-70
2021/12/30 05:18:30;;;;;;;107.28;35.95;;;9.70;99.90;;;;;;5069563;28;20066;-70
2021/12/30 05:21:01;;;;;;;144.40;39.20;;;9.70;99.90;;;;;;5066549;28;20044;-71
2021/12/30 05:23:28;;;;;;;145.35;39.50;;;9.70;99.90;;;;;;5068649;28;20064;-70
2021/12/30 05:25:54;;;;;;;106.57;36.40;;;9.80;99.90;;;;;;5065317;28;20052;-70
2021/12/30 05:28:19;;;;;;;116.78;38.53;;;9.80;99.90;;;;;;5067679;28;20036;-70
2021/12/30 05:30:45;;;;;;;133.85;39.88;;;9.80;99.90;;;;;;5068463;28;20040;-71
2021/12/30 05:33:11;;;;;;;101.38;36.88;;;9.80;99.90;;;;;;5064875;28;20053;-71
2021/12/30 05:35:37;;;;;;;112.45;38.22;;;9.90;99.90;;;;;;5064559;28;20054;-70
2021/12/30 05:38:03;;;;;;;97.28;36.70;;;9.90;99.90;;;;;;5057834;28;20119;-70
2021/12/30 05:40:30;;;;;;;111.75;38.08;;;9.90;99.90;;;;;;5067748;28;20501;-71
2021/12/30 05:42:56;;;;;;;102.00;38.20;;;10.00;99.90;;;;;;5063825;28;20130;-70
2021/12/30 05:45:22;;;;;;;96.93;36.83;;;10.00;99.90;;;;;;5059239;28;20710;-70
2021/12/30 05:47:49;;;;;;;103.68;36.63;;;10.00;99.90;;;;;;5066467;28;20044;-71
2021/12/30 05:50:19;;;;;;;118.75;37.30;;;10.10;99.90;;;;;;5064481;28;20045;-71
2021/12/30 05:52:45;;;;;;;90.03;33.10;;;10.10;99.90;;;;;;5066471;28;20045;-71
2021/12/30 05:55:13;;;;;;;84.85;33.20;;;10.10;99.90;;;;;;5066774;28;20048;-71
2021/12/30 05:57:39;;;;;;;105.07;35.27;;;10.10;99.90;;;;;;5058997;28;20402;-70
2021/12/30 06:00:10;;;;;;;93.43;33.08;;;10.10;99.90;;;;;;5057293;28;20044;-71
2021/12/30 06:02:36;;;;;;;100.43;34.92;;;10.20;99.90;;;;;;5059984;28;20056;-71
2021/12/30 06:05:01;;;;;;;102.05;34.20;;;10.20;99.90;;;;;;5067702;28;20494;-71
2021/12/30 06:07:27;;;;;;;94.72;32.30;;;10.20;99.90;;;;;;5061326;28;20041;-71
2021/12/30 06:09:53;;;;;;;86.22;32.42;;;10.20;99.90;;;;;;5066746;28;20181;-71
2021/12/30 06:12:18;;;;;;;77.82;29.33;;;10.20;99.90;;;;;;5057764;28;20044;-71
2021/12/30 06:14:44;;;;;;;78.10;32.05;;;10.30;99.90;;;;;;5061210;28;20070;-71
2021/12/30 06:17:13;;;;;;;81.68;31.58;;;10.30;99.90;;;;;;5064229;28;20505;-71
2021/12/30 06:19:39;;;;;;;68.82;30.20;;;10.30;99.90;;;;;;5063067;28;20064;-72
2021/12/30 06:22:06;;;;;;;70.50;29.10;;;10.30;99.90;;;;;;5062751;28;20044;-71
2021/12/30 06:24:33;;;;;;;76.22;29.50;;;10.30;99.90;;;;;;5066610;28;20049;-71
2021/12/30 06:26:58;;;;;;;83.38;31.80;;;10.40;99.90;;;;;;5062986;28;20037;-71
2021/12/30 06:29:24;;;;;;;86.35;31.88;;;10.40;99.90;;;;;;5062618;28;20138;-71
2021/12/30 06:31:50;;;;;;;75.28;31.30;;;10.40;99.90;;;;;;5058885;28;20094;-70
2021/12/30 06:34:15;;;;;;;110.07;36.53;;;10.40;99.90;;;;;;5065488;28;20083;-71
2021/12/30 06:36:42;;;;;;;129.23;38.20;;;10.40;99.90;;;;;;5043434;28;20048;-71
2021/12/30 06:39:08;;;;;;;125.80;38.00;;;10.40;99.90;;;;;;5063084;28;20068;-70
2021/12/30 06:41:33;;;;;;;133.88;39.10;;;10.40;99.90;;;;;;5063248;28;20059;-71
2021/12/30 06:43:59;;;;;;;121.82;39.20;;;10.50;99.90;;;;;;5067013;28;20097;-71
2021/12/30 06:46:25;;;;;;;139.50;42.35;;;10.50;99.90;;;;;;5059791;28;20131;-71
2021/12/30 06:48:51;;;;;;;139.05;43.72;;;10.50;99.90;;;;;;5066391;28;20127;-71
2021/12/30 06:51:18;;;;;;;142.43;41.80;;;10.50;99.90;;;;;;5056400;28;20045;-71
2021/12/30 06:53:45;;;;;;;122.53;39.47;;;10.60;99.90;;;;;;5063160;28;20040;-71
2021/12/30 06:56:11;;;;;;;144.52;40.70;;;10.60;99.90;;;;;;5062116;28;20437;-71
2021/12/30 06:58:36;;;;;;;121.90;39.08;;;10.60;99.90;;;;;;5059399;28;20082;-71
2021/12/30 07:01:03;;;;;;;114.75;38.72;;;10.60;99.90;;;;;;5060581;28;20048;-71
2021/12/30 07:03:29;;;;;;;107.65;37.25;;;10.60;99.90;;;;;;5063121;28;20044;-71
2021/12/30 07:05:56;;;;;;;130.90;38.47;;;10.70;99.90;;;;;;5065634;28;20409;-71
2021/12/30 07:08:22;;;;;;;88.57;33.53;;;10.80;99.90;;;;;;5066978;28;20119;-71
2021/12/30 07:10:49;;;;;;;104.63;33.92;;;10.80;99.90;;;;;;5064423;28;20412;-71
2021/12/30 07:13:15;;;;;;;100.82;35.22;;;10.90;99.90;;;;;;5061285;28;20047;-71
2021/12/30 07:15:41;;;;;;;116.43;37.13;;;10.90;99.90;;;;;;5058175;28;20040;-71
2021/12/30 07:18:07;;;;;;;99.40;32.83;;;10.90;99.90;;;;;;5064577;28;20059;-71
2021/12/30 07:20:32;;;;;;;86.68;33.83;;;10.90;99.90;;;;;;5064271;28;20505;-72
2021/12/30 07:22:58;;;;;;;86.40;30.27;;;11.00;99.90;;;;;;5061904;28;20516;-72
2021/12/30 07:25:24;;;;;;;100.75;32.35;;;11.00;99.90;;;;;;5052651;28;20124;-71
2021/12/30 07:27:52;;;;;;;90.65;31.08;;;11.00;99.90;;;;;;5064490;28;20033;-72
2021/12/30 07:30:20;;;;;;;91.40;30.13;;;11.00;99.90;;;;;;5065632;28;20050;-72
2021/12/30 07:32:46;;;;;;;89.18;29.67;;;11.00;99.90;;;;;;5065713;28;20723;-72
2021/12/30 07:35:13;;;;;;;69.22;26.98;;;11.00;99.90;;;;;;5061392;28;20052;-72
2021/12/30 07:37:39;;;;;;;67.13;24.67;;;11.00;99.90;;;;;;5055183;28;20045;-72
2021/12/30 07:40:06;;;;;;;47.40;21.23;;;11.00;99.90;;;;;;5067202;28;20044;-72
2021/12/30 07:42:32;;;;;;;50.30;22.00;;;11.10;99.90;;;;;;5064331;28;20564;-72
2021/12/30 07:44:57;;;;;;;50.22;18.95;;;11.10;99.90;;;;;;5063739;28;20052;-72
2021/12/30 07:47:23;;;;;;;46.85;19.33;;;11.10;99.90;;;;;;5060390;28;20057;-72
2021/12/30 07:49:48;;;;;;;44.10;17.45;;;11.10;99.90;;;;;;5059389;28;20141;-72
2021/12/30 07:52:15;;;;;;;40.70;17.48;;;11.20;99.90;;;;;;5063555;28;20489;-72
2021/12/30 07:54:40;;;;;;;33.05;14.80;;;11.20;99.90;;;;;;5066388;28;20139;-72
2021/12/30 07:57:06;;;;;;;32.47;14.27;;;11.10;99.90;;;;;;5055591;28;20049;-72
2021/12/30 07:59:32;;;;;;;24.65;12.38;;;11.10;99.90;;;;;;5063514;28;20135;-72
2021/12/30 08:01:58;;;;;;;32.25;12.77;;;11.20;99.90;;;;;;5062013;28;20029;-72
2021/12/30 08:04:24;;;;;;;32.42;13.70;;;11.20;99.90;;;;;;5061420;28;20417;-72
2021/12/30 08:06:49;;;;;;;28.92;12.85;;;11.20;99.90;;;;;;5064615;28;20044;-72
2021/12/30 08:09:15;;;;;;;24.85;12.40;;;11.30;99.90;;;;;;5060546;28;20037;-72
2021/12/30 08:11:41;;;;;;;26.10;11.55;;;11.20;99.90;;;;;;5056100;28;20044;-72
2021/12/30 08:14:07;;;;;;;34.88;12.73;;;11.30;99.90;;;;;;5063978;28;20048;-72
2021/12/30 08:16:33;;;;;;;24.05;10.80;;;11.20;99.90;;;;;;5066029;28;20110;-73
2021/12/30 08:18:58;;;;;;;26.65;11.43;;;11.30;99.90;;;;;;5060215;28;20045;-72
2021/12/30 08:21:24;;;;;;;19.83;11.00;;;11.30;99.90;;;;;;5059803;28;20106;-72
2021/12/30 08:23:51;;;;;;;19.00;10.32;;;11.30;99.90;;;;;;5065050;28;20048;-72
2021/12/30 08:26:19;;;;;;;25.67;10.20;;;11.30;99.90;;;;;;5055505;28;20428;-72
2021/12/30 08:28:46;;;;;;;17.40;9.85;;;11.30;99.90;;;;;;5064525;28;20437;-72
2021/12/30 08:31:12;;;;;;;24.25;10.85;;;11.30;99.90;;;;;;5064508;28;20056;-72
2021/12/30 08:33:38;;;;;;;16.98;9.55;;;11.40;99.90;;;;;;5065688;28;20044;-72
2021/12/30 08:36:04;;;;;;;18.63;10.40;;;11.40;99.90;;;;;;5064417;28;20053;-72
2021/12/30 08:38:29;;;;;;;19.10;9.88;;;11.40;99.90;;;;;;5063841;28;20056;-72
2021/12/30 08:40:55;;;;;;;16.52;10.15;;;11.40;99.90;;;;;;5062342;28;20086;-72
2021/12/30 08:43:21;;;;;;;16.55;8.88;;;11.40;99.90;;;;;;5060696;28;20127;-72
2021/12/30 08:45:48;;;;;;;12.57;7.93;;;11.40;99.90;;;;;;5061075;28;20094;-72
2021/12/30 08:48:15;;;;;;;15.88;7.65;;;11.50;99.90;;;;;;5070021;28;20044;-72
2021/12/30 08:50:41;;;;;;;16.27;8.80;;;11.50;99.90;;;;;;5069775;28;20044;-72
2021/12/30 08:53:08;;;;;;;14.65;7.55;;;11.50;99.90;;;;;;5068245;28;20044;-72
2021/12/30 08:55:35;;;;;;;13.73;8.65;;;11.50;99.90;;;;;;5057619;28;20119;-72
2021/12/30 08:58:01;;;;;;;16.17;8.27;;;11.50;99.90;;;;;;5073979;28;20049;-72
2021/12/30 09:00:30;;;;;;;11.05;7.18;;;11.60;99.90;;;;;;5068850;28;20501;-72
2021/12/30 09:02:58;;;;;;;10.93;7.07;;;11.60;99.90;;;;;;5068603;28;20523;-72
2021/12/30 09:05:24;;;;;;;13.88;8.10;;;11.60;99.90;;;;;;5068428;28;20060;-72
2021/12/30 09:07:51;;;;;;;16.33;9.73;;;11.70;99.90;;;;;;5045100;28;20060;-73
2021/12/30 09:10:19;;;;;;;17.10;10.00;;;11.70;99.90;;;;;;5052877;28;20053;-73
2021/12/30 09:12:46;;;;;;;16.75;9.70;;;11.70;99.90;;;;;;5066545;28;20386;-72
2021/12/30 09:15:15;;;;;;;20.75;11.15;;;11.70;99.90;;;;;;5067972;28;20060;-72
2021/12/30 09:17:43;;;;;;;23.17;11.25;;;11.80;99.90;;;;;;5070648;28;20041;-72
2021/12/30 09:20:10;;;;;;;27.60;11.70;;;11.80;99.90;;;;;;5077333;28;20044;-72
2021/12/30 09:22:37;;;;;;;20.05;11.52;;;11.80;99.90;;;;;;5062324;28;20037;-72
2021/12/30 09:25:08;;;;;;;24.08;14.07;;;11.80;99.90;;;;;;5065321;28;20109;-72
2021/12/30 09:27:35;;;;;;;19.98;12.32;;;11.80;99.90;;;;;;5055156;28;20556;-72
2021/12/30 09:30:02;;;;;;;19.08;11.52;;;11.80;99.90;;;;;;5066036;28;20074;-72
2021/12/30 09:32:28;;;;;;;28.55;13.38;;;11.80;99.90;;;;;;5069254;28;20052;-72
2021/12/30 09:34:54;;;;;;;31.23;13.85;;;11.90;99.90;;;;;;5068548;28;20053;-73
2021/12/30 09:37:20;;;;;;;25.13;13.35;;;11.90;99.90;;;;;;5058539;28;20048;-73
2021/12/30 09:39:46;;;;;;;25.80;12.90;;;11.90;99.90;;;;;;5047870;28;20393;-72
2021/12/30 09:42:14;;;;;;;25.08;13.85;;;12.00;99.90;;;;;;5062592;28;20080;-74
2021/12/30 09:44:40;;;;;;;33.40;11.93;;;12.00;99.90;;;;;;5061801;28;20051;-73
2021/12/30 09:47:06;;;;;;;29.40;11.45;;;12.00;99.90;;;;;;5058470;28;20775;-74
2021/12/30 09:49:31;;;;;;;26.80;14.00;;;12.00;99.90;;;;;;5065865;28;20044;-74
2021/12/30 09:51:57;;;;;;;32.20;13.68;;;12.00;99.90;;;;;;5067037;28;20497;-74
2021/12/30 09:54:23;;;;;;;38.40;15.88;;;12.00;99.90;;;;;;5066275;28;20256;-73
2021/12/30 09:56:49;;;;;;;24.42;13.80;;;12.00;99.90;;;;;;5065605;28;20095;-73
2021/12/30 09:59:15;;;;;;;35.40;17.20;;;12.00;99.90;;;;;;5050795;28;20044;-72
2021/12/30 10:01:42;;;;;;;32.05;16.40;;;12.00;99.90;;;;;;5060060;28;20090;-73
2021/12/30 10:04:10;;;;;;;37.13;14.73;;;12.00;99.90;;;;;;5060500;28;20052;-73
2021/12/30 10:06:48;;;;;;;30.27;15.85;;;12.00;99.90;;;;;;5063284;28;20044;-73
2021/12/30 10:09:15;;;;;;;24.55;14.45;;;12.10;99.90;;;;;;5062307;28;20053;-74
2021/12/30 10:11:45;;;;;;;24.58;12.77;;;12.00;99.90;;;;;;5064610;28;20041;-73
2021/12/30 10:14:12;;;;;;;28.70;15.45;;;12.10;99.90;;;;;;5063548;28;20036;-73
2021/12/30 10:16:38;;;;;;;30.80;15.98;;;12.10;99.90;;;;;;5065588;28;20075;-73
2021/12/30 10:19:05;;;;;;;23.05;14.00;;;12.10;99.90;;;;;;5064420;28;20076;-73
2021/12/30 10:21:37;;;;;;;28.63;14.77;;;12.10;99.90;;;;;;5056706;28;20868;-73
2021/12/30 10:24:09;;;;;;;30.58;15.02;;;12.10;99.90;;;;;;5061405;28;20041;-73
2021/12/30 10:26:51;;;;;;;27.83;13.43;;;12.00;99.90;;;;;;5059120;28;20114;-73
2021/12/30 10:29:17;;;;;;;22.75;13.90;;;12.10;99.90;;;;;;5061475;28;20425;-73
2021/12/30 10:31:43;;;;;;;20.40;13.02;;;12.10;99.90;;;;;;5060089;28;20046;-73
2021/12/30 10:34:10;;;;;;;27.42;15.27;;;12.00;99.90;;;;;;5061778;28;20752;-73
2021/12/30 10:36:38;;;;;;;19.83;13.75;;;12.00;99.90;;;;;;5059992;28;20049;-73
2021/12/30 10:39:42;;;;;;;26.40;13.77;;;12.00;99.90;;;;;;5060777;28;20045;-73
2021/12/30 10:42:09;;;;;;;22.15;13.73;;;12.10;99.90;;;;;;5052688;28;20243;-74
2021/12/30 10:44:49;;;;;;;20.17;12.20;;;12.00;99.90;;;;;;5054679;28;20086;-73
2021/12/30 10:47:15;;;;;;;26.75;13.68;;;12.10;99.90;;;;;;5053944;28;20509;-73
2021/12/30 10:49:41;;;;;;;25.48;12.98;;;12.10;99.90;;;;;;5060215;28;20517;-74
2021/12/30 10:52:06;;;;;;;21.92;12.75;;;12.10;99.90;;;;;;5060322;28;20056;-74
2021/12/30 10:54:37;;;;;;;29.48;13.20;;;12.10;99.90;;;;;;5059337;28;20939;-73
2021/12/30 10:57:06;;;;;;;22.40;12.95;;;12.10;99.90;;;;;;5060683;28;20490;-73
2021/12/30 10:59:36;;;;;;;30.63;12.95;;;12.10;99.90;;;;;;5060742;28;20056;-73
2021/12/30 11:02:15;;;;;;;32.53;13.52;;;12.10;99.90;;;;;;5042482;28;20071;-73
2021/12/30 11:04:57;;;;;;;20.30;11.68;;;12.10;99.90;;;;;;5060228;28;20056;-73
2021/12/30 11:07:27;;;;;;;26.77;14.23;;;12.10;99.90;;;;;;5060843;28;20496;-73
2021/12/30 11:09:55;;;;;;;32.85;14.43;;;12.10;99.90;;;;;;5057684;28;20055;-73
2021/12/30 11:12:44;;;;;;;37.63;14.07;;;12.10;99.90;;;;;;5059789;28;20048;-73
2021/12/30 11:15:25;;;;;;;36.05;15.63;;;12.10;99.90;;;;;;5041739;28;20060;-72
2021/12/30 11:18:04;;;;;;;45.08;15.70;;;12.10;99.90;;;;;;5060186;28;20156;-72
2021/12/30 11:20:41;;;;;;;29.10;12.50;;;12.10;99.90;;;;;;5059881;28;21323;-73
2021/12/30 11:23:07;;;;;;;33.95;14.65;;;12.10;99.90;;;;;;5059576;28;20095;-72
2021/12/30 11:25:33;;;;;;;36.55;13.93;;;12.10;99.90;;;;;;5061215;28;20036;-73
2021/12/30 11:27:59;;;;;;;39.53;13.90;;;12.10;99.90;;;;;;5059838;28;20048;-72
2021/12/30 11:30:25;;;;;;;46.92;14.93;;;12.10;99.90;;;;;;5059692;28;20508;-72
2021/12/30 11:32:51;;;;;;;30.13;15.27;;;12.10;99.90;;;;;;5060118;28;20052;-72
2021/12/30 11:35:20;;;;;;;50.85;15.38;;;12.10;99.90;;;;;;5058644;28;20056;-72
2021/12/30 11:37:46;;;;;;;36.13;14.50;;;12.10;99.90;;;;;;5060224;28;20060;-72
2021/12/30 11:40:17;;;;;;;37.92;12.77;;;12.10;99.90;;;;;;5058234;28;20052;-72
2021/12/30 11:42:46;;;;;;;35.80;14.32;;;12.10;99.90;;;;;;5060435;28;20037;-72
2021/12/30 11:45:35;;;;;;;41.38;14.60;;;12.00;99.90;;;;;;5059105;28;20151;-73
2021/12/30 11:48:07;;;;;;;44.42;15.70;;;12.10;99.90;;;;;;5058839;28;20147;-72
2021/12/30 11:50:40;;;;;;;56.63;14.48;;;12.00;99.90;;;;;;5059501;28;20052;-73
2021/12/30 11:53:12;;;;;;;39.95;13.65;;;12.10;99.90;;;;;;5058617;28;20044;-72
2021/12/30 11:55:56;;;;;;;50.00;13.13;;;12.10;99.90;;;;;;5060142;28;20143;-73
2021/12/30 11:58:28;;;;;;;41.65;13.05;;;12.10;99.90;;;;;;5061177;28;20725;-72
2021/12/30 12:01:25;;;;;;;27.58;12.43;;;12.10;99.90;;;;;;5058433;28;20450;-72
2021/12/30 12:03:53;;;;;;;44.83;14.55;;;12.10;99.90;;;;;;5060741;28;20071;-72
2021/12/30 12:06:27;;;;;;;;;;;12.10;99.90;;;;;;5077062;28;20460;-72
2021/12/30 12:09:14;;;;;;;35.25;13.20;;;12.10;99.90;;;;;;5061010;28;20305;-72
2021/12/30 12:11:52;;;;;;;35.25;12.27;;;12.10;99.90;;;;;;5058761;28;20052;-72
2021/12/30 12:14:18;;;;;;;;;;;12.20;99.90;;;;;;5061713;28;20046;-72
2021/12/30 12:16:47;;;;;;;52.47;12.85;;;12.20;99.90;;;;;;5060848;28;19928;-72
2021/12/30 12:19:15;;;;;;;37.15;11.73;;;12.20;99.90;;;;;;5046591;28;20059;-71
2021/12/30 12:21:47;;;;;;;43.40;12.52;;;12.20;99.90;;;;;;5063147;28;20489;-71
2021/12/30 12:24:22;;;;;;;37.17;13.50;;;12.20;99.90;;;;;;5062209;28;20159;-72
2021/12/30 12:26:50;;;;;;;31.33;11.52;;;12.20;99.90;;;;;;5062716;28;20049;-71
2021/12/30 12:29:23;;;;;;;;;;;12.20;99.90;;;;;;5062053;28;20568;-72
2021/12/30 12:32:11;;;;;;;42.45;12.30;;;12.20;99.90;;;;;;5064245;28;19928;-72
2021/12/30 12:34:51;;;;;;;49.83;14.40;;;12.20;99.90;;;;;;5062624;28;20509;-71
2021/12/30 12:37:37;;;;;;;43.03;11.40;;;12.20;99.90;;;;;;5064057;28;20098;-71